首页
METAR-TAF:

METAR-TAF

机场 :

斯图加特机场

斯图加特, 德国

纬度: 48-41N, 经度: 009-13E, 海拔: 396米

当前天气观测

该预报发布于23分钟前的00:50 UTC
风速1节,风向多变
温度 3°C
湿度 93%
气压 1004 hPa
能见度10公里或以上
少量云层高于1400英尺
多云层高于2600英尺

METAR: EDDS 180050Z VRB01KT 9999 FEW014 BKN026 03/02 Q1004

时间: 02:13 (01:13 UTC)

预报

该预报发布于2小时和13分钟前的23:00 UTC
预报有效从18日的 00点(UTC)到 18日的 24点(UTC)
风速4节,风向
能见度10公里或以上
散云层高于1200英尺
多云层高于2500英尺
成为
从 18日的 08点(UTC)到 18日的 10点(UTC)
风速10节,风向南转西南

TAF: EDDS 172300Z 1800/1824 19004KT 9999 SCT012 BKN025 BECMG 1808/1810 21010KT

超过4000个机场的气象观测和天气预报(METAR&TAF报告)。

可查询的气象台以黄色和红色小点在地图上表示。

将鼠标移到小点上方,可查看气象台名称。

然后点击查看天气观测和预报。

如需切换地图:点击带黑十字的绿色按钮放大地图;点击带横线的绿色按钮缩小地图;或者点击绿色箭头查看邻近地区的地图。


METAR-TAF: